Pagina principale
METAR-TAF:

METAR-TAF

Aeroporti :

Aeroporto di Portorose

Portorose, Slovenia

latitudine: 45-31N, longitudine: 013-34E, altezza: 95 m

Osservazione

Il bollettino è stato emesso 35 minuti fa, alle 04:00 UTC
Vento 5 kt da est/sud-est
Temperature 18°C
Umidità 88%
Pressione 1015 hPa
Visibilità 10 km o più
nessuna nube inferiore a 1500 m e nessun cumulonembo

METAR: LJPZ 180400Z 11005KT CAVOK 18/16 Q1015

Ora: 06:35 (04:35 UTC)

Previsione

Il bollettino è stato emesso 2 ore e 35 minuti fa, alle 02:00 UTC
Previsione valida dal 18 alle 03 UTC al 18 alle 12 UTC
Vento 5 kt da est/sud-est
Visibilità 10 km o più
nessuna nube inferiore a 1500 m e nessun cumulonembo
Evoluzione graduale
dal 18 alle 08 UTC al 18 alle 10 UTC
Vento 5 kt da ovest/nord-ovest

TAF: LJPZ 180200Z 1803/1812 12005KT CAVOK BECMG 1808/1810 30005KT

Osservazioni e previsioni meteorologiche di più di 4000 aeroporti (messaggi METAR e TAF).

Le stazioni disponibili sono rappresentate dai dischi gialli e rossi sulla carta.

Puntare il mouse per vedere il nome della stazione.

Clicca sopra per visualizzare le osservazioni e previsioni meteorologiche.

Per cambiare la mappa : fare clic sui pulsanti verdi con una croce nera per ingrandire, il pulsante verde con un trattino per diminuire, o sulla freccia verde per le mappe adiacenti.


METAR-TAF: